Guatay (79, 629) Station Data

Red Flag Warning: No
Fire Weather Zone: 258
SDGE Region: Mountain Empire
Lat/Lon: 32.855/-116.574

Observations

Time Wind Speed/Gust Temp(F) RH Fuel Moist Fuel Temp(F) Dewpt(F) Tmax(F) Tmin(F) Accum Precip 10-min Precip SL Press(mb)
3/29 8:00am 347 3 G 5 59° 15% - - 12° 59.7° 45.6° - - -
3/29 7:50am 353 4 G 5 58° 16% - - 13° 59.7° 45.6° - - -
3/29 7:40am 34 1 G 4 59° 16% - - 13° 59.7° 45.6° - - -
3/29 7:30am 25 2 G 4 59° 15% - - 12° 59.3° 45.6° - - -
3/29 7:20am 69 2 G 5 59° 15% - - 11° 59.2° 45.6° - - -
3/29 7:10am 72 4 G 10 58° 16% - - 11° 58.6° 45.6° - - -
3/29 7:00am 130 6 G 11 58° 15% - - 11° 58.6° 45.6° - - -
3/29 6:50am 145 7 G 12 56° 17% - - 11° 58.6° 45.6° - - -
3/29 6:40am 164 5 G 10 56° 17% - - 11° 58.6° 45.6° - - -
3/29 6:30am 248 2 G 7 57° 15% - - 10° 58.6° 45.6° - - -
3/29 6:20am 347 3 G 6 56° 15% - - 10° 58.6° 45.6° - - -
3/29 6:10am 88 2 G 5 56° 16% - - 10° 58.6° 45.6° - - -
3/29 6:00am 82 3 G 6 57° 15% - - 10° 58.6° 45.6° - - -
3/29 5:50am 91 3 G 8 58° 14% - - 58.6° 45.6° - - -
3/29 5:40am 296 2 G 6 57° 15% - - 58.6° 45.6° - - -
3/29 5:30am 319 2 G 4 56° 16% - - 10° 58.6° 45.6° - - -
3/29 5:20am 127 5 G 10 56° 16% - - 11° 58.6° 45.6° - - -
3/29 5:10am 133 2 G 9 57° 15% - - 58.6° 45.6° - - -
3/29 5:00am 5 3 G 7 57° 15% - - 10° 58.6° 45.6° - - -
3/29 4:50am 44 2 G 5 58° 14% - - 58.6° 45.6° - - -
3/29 4:40am 328 3 G 7 58° 14% - - 58.6° 45.6° - - -
3/29 4:30am 210 6 G 10 57° 15% - - 57.8° 45.6° - - -
3/29 4:20am 154 3 G 8 57° 15% - - 57.3° 45.6° - - -
3/29 4:10am 128 3 G 6 56° 15% - - 56.6° 45.6° - - -
3/29 4:00am 228 2 G 4 55° 15% - - 56.5° 45.6° - - -
3/29 3:50am 255 2 G 5 56° 15% - - 56.5° 45.6° - - -
3/29 3:40am 79 2 G 5 54° 16% - - 56.5° 45.6° - - -
3/29 3:30am 93 5 G 8 54° 17% - - 10° 56.5° 45.6° - - -
3/29 3:20am 85 4 G 6 55° 17% - - 10° 56.5° 45.6° - - -
3/29 3:10am 35 4 G 6 56° 15% - - 56.5° 45.6° - - -
3/29 3:00am 343 2 G 5 54° 17% - - 10° 56.5° 45.6° - - -
3/29 2:50am 317 3 G 7 54° 18% - - 11° 56.5° 45.6° - - -
3/29 2:40am 315 4 G 6 53° 20% - - 12° 56.5° 45.6° - - -
3/29 2:30am 291 4 G 7 53° 18% - - 11° 56.5° 45.6° - - -
3/29 2:20am 285 5 G 9 56° 16% - - 56.5° 45.6° - - -
3/29 2:10am 264 2 G 6 55° 16% - - 56.5° 45.6° - - -
3/29 2:00am 289 2 G 5 55° 15% - - 56.5° 45.6° - - -
3/29 1:50am 173 3 G 5 55° 15% - - 56.5° 45.6° - - -
3/29 1:40am 132 1 G 3 54° 16% - - 54.8° 45.6° - - -
3/29 1:30am 120 2 G 4 54° 17% - - 10° 54.8° 45.6° - - -
3/29 1:20am 91 4 G 7 50° 22% - - 13° 53.2° 45.6° - - -
3/29 1:10am 87 5 G 7 47° 28% - - 16° 52.1° 45.6° - - -
3/29 1:00am 88 6 G 9 47° 28% - - 16° 52.1° 45.9° - - -
3/29 12:50am 79 4 G 8 48° 26% - - 15° 52.1° 46.2° - - -
3/29 12:40am 94 1 G 3 50° 24% - - 14° 52.1° 49° - - -
3/29 12:30am 79 3 G 6 50° 23% - - 14° 52.1° 49.7° - - -
3/29 12:20am 64 6 G 8 52° 21% - - 14° 52.1° 50.1° - - -
3/29 12:10am 75 5 G 7 51° 23% - - 14° 51.5° 50.1° - - -
3/29 12:00am 80 7 G 8 50° 25% - - 16° 63.3° 39° - - -
3/28 11:50pm 82 7 G 8 50° 25% - - 16° 63.3° 39° - - -
3/28 11:40pm 86 7 G 9 50° 25% - - 16° 63.3° 39° - - -
3/28 11:30pm 84 8 G 9 49° 29% - - 18° 63.3° 39° - - -
3/28 11:20pm 85 8 G 9 50° 27% - - 18° 63.3° 39° - - -
3/28 11:10pm 82 7 G 9 49° 34% - - 22° 63.3° 39° - - -
3/28 11:00pm 82 5 G 7 50° 35% - - 23° 63.3° 39° - - -
3/28 10:50pm 83 5 G 6 49° 40% - - 26° 63.3° 39° - - -
3/28 10:40pm 85 5 G 7 49° 42% - - 27° 63.3° 39° - - -
3/28 10:30pm 80 4 G 6 50° 40% - - 27° 63.3° 39° - - -
3/28 10:20pm 86 7 G 9 50° 46% - - 30° 63.3° 39° - - -
3/28 10:10pm 81 5 G 7 50° 45% - - 30° 63.3° 39° - - -
3/28 10:00pm 84 5 G 7 50° 49% - - 32° 63.3° 39° - - -
3/28 9:50pm 84 6 G 7 51° 49% - - 32° 63.3° 39° - - -
3/28 9:40pm 81 7 G 10 49° 57% - - 35° 63.3° 39° - - -
3/28 9:30pm 80 7 G 10 50° 58% - - 36° 63.3° 39° - - -
3/28 9:20pm 89 7 G 10 48° 66% - - 37° 63.3° 39° - - -
3/28 9:10pm 75 4 G 6 51° 61% - - 38° 63.3° 39° - - -
3/28 9:00pm 84 5 G 6 51° 63% - - 39° 63.3° 39° - - -
3/28 8:50pm 82 5 G 7 51° 63% - - 39° 63.3° 39° - - -
3/28 8:40pm 87 6 G 9 51° 64% - - 39° 63.3° 39° - - -
3/28 8:30pm 86 5 G 9 50° 65% - - 39° 63.3° 39° - - -
3/28 8:20pm 87 4 G 6 50° 67% - - 39° 63.3° 39° - - -
3/28 8:10pm 86 4 G 4 51° 66% - - 40° 63.3° 39° - - -
3/28 8:00pm 92 5 G 7 50° 66% - - 39° 63.3° 39° - - -
3/28 7:50pm 83 3 G 4 52° 63% - - 40° 63.3° 39° - - -
3/28 7:40pm 57 3 G 4 53° 60% - - 40° 63.3° 39° - - -
3/28 7:30pm 292 1 G 3 53° 60% - - 40° 63.3° 39° - - -
3/28 7:20pm 269 3 G 4 54° 59% - - 40° 63.3° 39° - - -
3/28 7:10pm 256 5 G 8 54° 58% - - 40° 63.3° 39° - - -
3/28 7:00pm 268 5 G 8 55° 57% - - 40° 63.3° 39° - - -
3/28 6:50pm 261 7 G 10 56° 56% - - 40° 63.3° 39° - - -
3/28 6:40pm 272 8 G 11 56° 56% - - 41° 63.3° 39° - - -
3/28 6:30pm 268 8 G 13 57° 55% - - 41° 63.3° 39° - - -
3/28 6:20pm 273 10 G 15 57° 55% - - 41° 63.3° 39° - - -
3/28 6:10pm 266 10 G 14 57° 54% - - 41° 63.3° 39° - - -
3/28 6:00pm 283 12 G 18 58° 52% - - 41° 63.3° 39° - - -
3/28 5:50pm 253 10 G 15 58° 51% - - 40° 63.3° 39° - - -
3/28 5:40pm 247 12 G 16 58° 51% - - 40° 63.3° 39° - - -
3/28 5:30pm 240 12 G 18 59° 48% - - 40° 63.3° 39° - - -
3/28 5:20pm 260 10 G 15 60° 42% - - 37° 63.3° 39° - - -
3/28 5:10pm 263 10 G 15 61° 39% - - 35° 63.3° 39° - - -
3/28 5:00pm 253 10 G 15 61° 37% - - 34° 63.3° 39° - - -
3/28 4:50pm 267 8 G 12 62° 35% - - 34° 63.3° 39° - - -
3/28 4:40pm 272 9 G 14 62° 32% - - 33° 63.3° 39° - - -
3/28 4:30pm 259 8 G 13 62° 33% - - 33° 63.3° 39° - - -
3/28 4:20pm 274 8 G 13 63° 32% - - 33° 63.3° 39° - - -
3/28 4:10pm 285 8 G 13 62° 33% - - 32° 63.3° 39° - - -
3/28 4:00pm 271 8 G 13 62° 33% - - 33° 63.3° 39° - - -
3/28 3:50pm 265 7 G 14 62° 33% - - 33° 63.3° 39° - - -
3/28 3:40pm 255 9 G 17 62° 33% - - 32° 63.3° 39° - - -
3/28 3:30pm 271 8 G 16 62° 32% - - 32° 63.2° 39° - - -
3/28 3:20pm 243 8 G 14 62° 31% - - 31° 63.2° 39° - - -
3/28 3:10pm 259 6 G 14 62° 30% - - 31° 63.2° 39° - - -
3/28 3:00pm 257 6 G 13 62° 31% - - 31° 63.2° 39° - - -
3/28 2:50pm 249 8 G 14 61° 31% - - 30° 61.9° 39° - - -
3/28 2:40pm 266 9 G 14 60° 31% - - 29° 61.9° 39° - - -
3/28 2:30pm 247 11 G 20 60° 30% - - 29° 61.9° 39° - - -
3/28 2:20pm 251 10 G 16 61° 31% - - 30° 61.9° 39° - - -
3/28 2:10pm 264 8 G 15 61° 30% - - 29° 61.9° 39° - - -
3/28 2:00pm 238 8 G 13 61° 29% - - 28° 61.9° 39° - - -
3/28 1:50pm 241 9 G 16 60° 29% - - 28° 61.9° 39° - - -
3/28 1:40pm 244 9 G 16 59° 30% - - 28° 61.9° 39° - - -
3/28 1:30pm 253 9 G 17 59° 30% - - 28° 61.9° 39° - - -
3/28 1:20pm 265 9 G 15 59° 31% - - 29° 61.9° 39° - - -
3/28 1:10pm 251 9 G 16 59° 32% - - 29° 61.9° 39° - - -
3/28 1:00pm 240 9 G 16 59° 32% - - 29° 61.9° 39° - - -
3/28 12:50pm 241 10 G 17 59° 32% - - 29° 61.9° 39° - - -
3/28 12:40pm 254 11 G 16 58° 32% - - 29° 61.9° 39° - - -
3/28 12:30pm 261 11 G 17 58° 32% - - 29° 61.9° 39° - - -
3/28 12:20pm 247 11 G 16 59° 31% - - 29° 61.9° 39° - - -
3/28 12:10pm 259 9 G 16 60° 26% - - 25° 61.9° 39° - - -
3/28 12:00pm 272 8 G 13 61° 24% - - 23° 61.9° 39° - - -
3/28 11:50am 246 9 G 14 59° 22% - - 20° 61.3° 39° - - -
3/28 11:40am 280 6 G 16 61° 17% - - 16° 61.3° 39° - - -
3/28 11:30am 281 7 G 15 60° 15% - - 12° 60.9° 39° - - -
3/28 11:20am 272 8 G 12 60° 14% - - 11° 60.7° 39° - - -
3/28 11:10am 292 5 G 9 60° 15% - - 12° 60.7° 39° - - -
3/28 11:00am 289 5 G 12 60° 14% - - 11° 60.1° 39° - - -
3/28 10:50am 299 6 G 12 59° 15% - - 11° 60.1° 39° - - -
3/28 10:40am 315 5 G 15 60° 15% - - 11° 60.1° 39° - - -
3/28 10:30am 304 5 G 9 59° 15% - - 11° 59.5° 39° - - -
3/28 10:20am 295 7 G 13 58° 15% - - 11° 58.7° 39° - - -
3/28 10:10am 302 5 G 11 58° 16% - - 13° 58.6° 39° - - -
3/28 10:00am 296 4 G 9 58° 17% - - 13° 58.2° 39° - - -
3/28 9:50am 328 3 G 7 58° 17% - - 12° 58° 39° - - -
3/28 9:40am 16 3 G 11 57° 17% - - 12° 57.6° 39° - - -
3/28 9:30am 0 5 G 11 56° 18% - - 13° 57.1° 39° - - -
3/28 9:20am 63 4 G 11 56° 19% - - 14° 57.1° 39° - - -
3/28 9:10am 24 2 G 8 55° 19% - - 14° 56.1° 39° - - -
3/28 9:00am 229 2 G 4 54° 21% - - 15° 54.8° 39° - - -
3/28 8:50am 217 2 G 4 54° 21% - - 15° 54.2° 39° - - -
3/28 8:40am 253 2 G 4 53° 20% - - 13° 53.5° 39° - - -
3/28 8:30am 262 2 G 5 53° 22% - - 15° 53.3° 39° - - -
3/28 8:20am 311 1 G 4 52° 21% - - 14° 52.6° 39° - - -
3/28 8:10am 231 1 G 4 51° 22% - - 14° 52.2° 39° - - -
3/28 8:00am 281 3 G 4 50° 23% - - 14° 50.8° 39° - - -
3/28 7:50am 277 2 G 4 50° 24% - - 14° 50.2° 39° - - -
3/28 7:40am 280 3 G 4 49° 25% - - 14° 50.2° 39° - - -
3/28 7:30am 286 4 G 7 49° 25% - - 15° 50.2° 39° - - -
3/28 7:20am 239 4 G 7 48° 24% - - 13° 50.2° 39° - - -
3/28 7:10am 194 3 G 8 48° 26% - - 14° 50.2° 39° - - -
3/28 7:00am 98 1 G 4 48° 25% - - 14° 50.2° 39° - - -
3/28 6:50am 85 4 G 6 48° 28% - - 16° 50.2° 39° - - -
3/28 6:40am 83 6 G 10 48° 27% - - 16° 50.2° 39° - - -
3/28 6:30am 84 6 G 7 46° 32% - - 18° 50.2° 39° - - -
3/28 6:20am 86 3 G 6 47° 30% - - 17° 50.2° 39° - - -
3/28 6:10am 89 3 G 4 47° 31% - - 18° 50.2° 39° - - -
3/28 6:00am 86 5 G 8 45° 35% - - 19° 50.2° 39° - - -